Patton, CA (92369)

4:28 AM PST on November 28, 2014 (GMT -0800)
North San Bernardino | Change Station
CLOSE
Current Station
Personal Weather Station
Location: San Bernardino, CA
Elevation: 1278 ft
Nearby Weather Stations

Elev 1278 ft 34.16 °N, 117.29 °W | Updated 8 seconds ago

Clear
Clear
49.2 °F
Feels Like 49 °F
N
0.0
Wind Variable Wind from NNW
Gusts 2.0 mph

Today
High -- | Low -- °F
--% Chance of Precip.
Yesterday
High -- | Low -- °F
Precip. -- in
6:33 AM 4:39 PM
Waxing Crescent, 40% visible
Pressure 30.00 in
Visibility 10.0 miles
Clouds Clear
Windchill 49 °F
Dew Point 28 °F
Humidity 43%
Rainfall 0.00 in
Snow Depth Not available.
UV 0 out of 12
Pollen 2.10 out of 12
Air Quality Not available.
Flu Activity Not available.
METAR KRIV 281158Z AUTO 00000KT 10SM CLR 05/M09 A3002 RMK AO2 SLP159 T00471094 10118 20045 57006

More Conditions Fewer Conditions

Pressure 30.00 in
Visibility 10.0 miles
Clouds Clear
Windchill 49 °F
Dew Point 28 °F
Humidity 43%
Rainfall 0.00 in
Snow Depth Not available.
UV 0 out of 12
Pollen 2.10 out of 12
Air Quality Not available.
Flu Activity Not available.
METAR KRIV 281158Z AUTO 00000KT 10SM CLR 05/M09 A3002 RMK AO2 SLP159 T00471094 10118 20045 57006

More Conditions Fewer Conditions

10-Day Weather Forecast

Almanac

Astronomy

Nov. 28, 2014 Rise Set
Actual Time
Civil Twilight
Nautical Twilight
Astronomical Twilight
Moon
Length of Visible Light
Length of Day
Tomorrow will be .
, % of the Moon is Illuminated

Today's Extremes

State Highs State Lows

Community

WunderPhotos

Upload Photos

1,774,199 photos uploaded!

WunderBlogs® & News

Nearby

Air Quality

  Air Quality AQ Index Pollutant
Not available.

Snow Depth

Station Depth Elevation

Earthquake Activity

City Distance Mag. Time & Date
Minimum magnitude displayed is 2.5.

Coastal Water Temperatures

Place Temperature

Nearby Weather Stations